Time;durP1;ratioP1;P1;durP2;ratioP2;P2;SDS_P1;SDS_P2;PMS_P1;PMS_P2;Temp;Humidity;BMP_temperature;BMP_pressure;BME280_temperature;BME280_humidity;BME280_pressure;Samples;Min_cycle;Max_cycle;Signal;HPM_P1;HPM_P2
2021/01/07 00:01:41;;;;;;;15.03;7.43;;;1.80;99.70;;;;;;5033432;28;20444;-68
2021/01/07 00:04:07;;;;;;;15.77;7.70;;;1.70;99.70;;;;;;5032654;28;20496;-67
2021/01/07 00:06:33;;;;;;;11.17;6.70;;;1.60;99.70;;;;;;5033326;28;20448;-67
2021/01/07 00:08:59;;;;;;;15.30;7.60;;;1.50;99.70;;;;;;5033052;28;20471;-68
2021/01/07 00:11:26;;;;;;;14.47;7.23;;;1.40;99.70;;;;;;5033383;28;20455;-67
2021/01/07 00:13:52;;;;;;;14.10;7.23;;;1.40;99.70;;;;;;5033276;28;20464;-67
2021/01/07 00:16:19;;;;;;;13.00;7.00;;;1.40;99.70;;;;;;5033164;28;20448;-68
2021/01/07 00:18:46;;;;;;;13.10;7.03;;;1.30;99.70;;;;;;5032707;28;20999;-68
2021/01/07 00:21:12;;;;;;;12.37;6.97;;;1.40;99.70;;;;;;5033034;28;20448;-67
2021/01/07 00:23:38;;;;;;;13.33;7.20;;;1.40;99.70;;;;;;5033028;28;20457;-67
2021/01/07 00:26:04;;;;;;;13.43;7.27;;;1.40;99.70;;;;;;5033009;28;20465;-67
2021/01/07 00:28:30;;;;;;;14.43;6.70;;;1.30;99.70;;;;;;5032762;28;20441;-67
2021/01/07 00:30:56;;;;;;;15.97;7.70;;;1.30;99.70;;;;;;5032801;28;20459;-67
2021/01/07 00:33:23;;;;;;;13.00;7.53;;;1.30;99.70;;;;;;5032987;28;20448;-67
2021/01/07 00:35:51;;;;;;;12.83;6.60;;;1.30;99.70;;;;;;5032799;28;20707;-67
2021/01/07 00:38:17;;;;;;;13.40;7.30;;;1.30;99.70;;;;;;5032531;28;20568;-67
2021/01/07 00:40:43;;;;;;;15.30;7.30;;;1.70;99.70;;;;;;5032973;28;20445;-68
2021/01/07 00:43:09;;;;;;;16.93;7.70;;;1.60;99.70;;;;;;5032804;28;20867;-67
2021/01/07 00:45:35;;;;;;;13.27;7.30;;;1.40;99.70;;;;;;5032586;28;20981;-69
2021/01/07 00:48:02;;;;;;;16.50;7.67;;;1.50;99.70;;;;;;5032329;28;20437;-68
2021/01/07 00:50:28;;;;;;;13.60;7.23;;;1.60;99.70;;;;;;5032040;28;20657;-68
2021/01/07 00:52:55;;;;;;;14.80;7.00;;;1.80;99.70;;;;;;5032666;28;20440;-68
2021/01/07 00:55:21;;;;;;;18.07;7.50;;;1.60;99.70;;;;;;5032617;28;20495;-67
2021/01/07 00:57:47;;;;;;;13.47;6.90;;;1.50;99.70;;;;;;5032176;28;20441;-67
2021/01/07 01:00:18;;;;;;;14.70;7.30;;;1.50;99.70;;;;;;5032528;28;20440;-68
2021/01/07 01:02:45;;;;;;;12.00;6.90;;;1.40;99.70;;;;;;5032379;28;20535;-67
2021/01/07 01:05:12;;;;;;;12.40;7.07;;;1.40;99.70;;;;;;5031694;28;20468;-67
2021/01/07 01:07:38;;;;;;;18.17;8.97;;;1.40;99.70;;;;;;5031978;28;20440;-68
2021/01/07 01:10:08;;;;;;;14.27;7.60;;;1.40;99.70;;;;;;5032326;28;20455;-70
2021/01/07 01:12:35;;;;;;;14.27;7.53;;;1.40;99.70;;;;;;5032242;28;20837;-68
2021/01/07 01:15:01;;;;;;;13.47;7.00;;;1.40;99.70;;;;;;5032165;28;20464;-68
2021/01/07 01:17:27;;;;;;;16.50;8.27;;;1.40;99.70;;;;;;5032122;28;20969;-67
2021/01/07 01:19:53;;;;;;;13.93;7.20;;;1.30;99.70;;;;;;5032027;28;20484;-67
2021/01/07 01:22:20;;;;;;;16.43;8.00;;;1.40;99.70;;;;;;5032121;28;20440;-67
2021/01/07 01:24:46;;;;;;;14.73;7.57;;;1.40;99.70;;;;;;5031957;28;20464;-68
2021/01/07 01:27:13;;;;;;;16.70;8.23;;;1.40;99.70;;;;;;5031531;28;20479;-67
2021/01/07 01:29:39;;;;;;;17.80;8.63;;;1.40;99.70;;;;;;5031915;28;20504;-69
2021/01/07 01:32:06;;;;;;;16.50;8.60;;;1.50;99.70;;;;;;5031942;28;20441;-68
2021/01/07 01:34:32;;;;;;;16.40;8.80;;;1.40;99.70;;;;;;5031748;28;20499;-67
2021/01/07 01:37:04;;;;;;;18.73;8.93;;;1.40;99.70;;;;;;5031457;28;20941;-67
2021/01/07 01:39:31;;;;;;;17.47;8.50;;;1.40;99.70;;;;;;5031739;28;20862;-67
2021/01/07 01:41:57;;;;;;;16.10;8.60;;;1.50;99.70;;;;;;5031683;28;20449;-69
2021/01/07 01:44:24;;;;;;;17.50;9.17;;;1.50;99.70;;;;;;5031767;28;20525;-69
2021/01/07 01:46:51;;;;;;;15.90;8.80;;;1.60;99.70;;;;;;5031263;28;20445;-67
2021/01/07 01:49:20;;;;;;;16.80;8.27;;;1.50;99.70;;;;;;5031684;28;20519;-67
2021/01/07 01:51:46;;;;;;;15.70;8.70;;;1.50;99.70;;;;;;5031414;28;20452;-67
2021/01/07 01:54:13;;;;;;;16.20;8.67;;;1.40;99.70;;;;;;5031372;28;20889;-67
2021/01/07 01:56:40;;;;;;;16.20;7.00;;;1.30;99.70;;;;;;5031512;28;20457;-67
2021/01/07 01:59:07;;;;;;;17.60;8.97;;;1.40;99.70;;;;;;5031192;28;21071;-67
2021/01/07 02:01:34;;;;;;;17.43;7.93;;;1.80;99.70;;;;;;5031342;28;20907;-67
2021/01/07 02:04:00;;;;;;;18.50;8.97;;;1.60;99.70;;;;;;5031291;28;20519;-67
2021/01/07 02:06:28;;;;;;;16.53;8.47;;;1.70;99.70;;;;;;5031171;28;20850;-68
2021/01/07 02:08:55;;;;;;;14.97;7.50;;;1.50;99.70;;;;;;5030986;28;20440;-67
2021/01/07 02:11:22;;;;;;;13.53;7.67;;;1.50;99.70;;;;;;5031442;28;20441;-68
2021/01/07 02:13:49;;;;;;;13.70;7.73;;;1.40;99.70;;;;;;5031095;28;20449;-71
2021/01/07 02:16:19;;;;;;;16.60;8.33;;;1.40;99.70;;;;;;5031227;28;20441;-67
2021/01/07 02:18:46;;;;;;;13.23;7.47;;;1.50;99.70;;;;;;5030695;28;20512;-67
2021/01/07 02:21:13;;;;;;;11.47;7.20;;;1.70;99.70;;;;;;5031270;28;20455;-68
2021/01/07 02:23:47;;;;;;;13.10;7.20;;;1.70;99.70;;;;;;5031084;28;20801;-68
2021/01/07 02:26:14;;;;;;;13.93;7.60;;;1.60;99.70;;;;;;5031236;28;20483;-67
2021/01/07 02:28:40;;;;;;;10.60;6.30;;;1.40;99.70;;;;;;5030756;28;20448;-67
2021/01/07 02:31:06;;;;;;;10.97;7.00;;;1.50;99.70;;;;;;5031126;28;20440;-67
2021/01/07 02:33:32;;;;;;;11.73;6.30;;;1.40;99.70;;;;;;5030978;28;20440;-70
2021/01/07 02:35:59;;;;;;;10.23;6.40;;;1.40;99.70;;;;;;5030972;28;21005;-70
2021/01/07 02:38:26;;;;;;;13.47;6.93;;;1.30;99.70;;;;;;5030376;28;20571;-68
2021/01/07 02:40:52;;;;;;;11.57;6.40;;;1.40;99.70;;;;;;5030863;28;20449;-67
2021/01/07 02:43:18;;;;;;;9.80;6.30;;;1.30;99.70;;;;;;5030715;28;20471;-67
2021/01/07 02:45:44;;;;;;;11.90;6.47;;;1.30;99.70;;;;;;5030541;28;20465;-67
2021/01/07 02:48:10;;;;;;;11.10;5.90;;;1.30;99.70;;;;;;5030319;28;20445;-69
2021/01/07 02:50:37;;;;;;;10.40;5.93;;;1.30;99.70;;;;;;5030688;28;20480;-69
2021/01/07 02:53:03;;;;;;;11.03;6.27;;;1.20;99.70;;;;;;5030617;28;20449;-70
2021/01/07 02:55:30;;;;;;;10.40;5.77;;;1.30;99.70;;;;;;5030373;28;20882;-69
2021/01/07 02:57:57;;;;;;;11.70;6.30;;;1.40;99.70;;;;;;5029956;28;20456;-67
2021/01/07 03:00:24;;;;;;;9.67;5.70;;;1.30;99.70;;;;;;5030472;28;20444;-67
2021/01/07 03:02:50;;;;;;;9.77;5.97;;;1.20;99.70;;;;;;5030272;28;20927;-68
2021/01/07 03:05:16;;;;;;;10.77;6.23;;;1.10;99.70;;;;;;5029688;28;20460;-67
2021/01/07 03:07:42;;;;;;;11.07;6.37;;;1.10;99.70;;;;;;5030030;28;20440;-68
2021/01/07 03:10:10;;;;;;;10.10;5.80;;;1.20;99.70;;;;;;5030494;28;20440;-67
2021/01/07 03:12:37;;;;;;;9.27;5.93;;;1.30;99.70;;;;;;5030713;28;20821;-68
2021/01/07 03:15:04;;;;;;;11.30;6.20;;;1.40;99.70;;;;;;5029961;28;20539;-68
2021/01/07 03:17:30;;;;;;;9.57;5.80;;;1.50;99.70;;;;;;5030279;28;20463;-68
2021/01/07 03:19:57;;;;;;;10.80;5.77;;;1.50;99.70;;;;;;5030077;28;20492;-67
2021/01/07 03:22:23;;;;;;;7.83;5.40;;;1.50;99.70;;;;;;5030177;28;20451;-67
2021/01/07 03:24:49;;;;;;;9.87;6.20;;;1.40;99.70;;;;;;5030213;28;20853;-68
2021/01/07 03:27:15;;;;;;;11.07;5.33;;;1.40;99.70;;;;;;5029898;28;20449;-67
2021/01/07 03:29:42;;;;;;;10.03;5.80;;;1.40;99.70;;;;;;5030078;28;20447;-69
2021/01/07 03:32:08;;;;;;;10.10;5.60;;;1.40;99.70;;;;;;5030095;28;20445;-68
2021/01/07 03:34:34;;;;;;;10.20;6.20;;;1.40;99.70;;;;;;5030157;28;20468;-67
2021/01/07 03:37:01;;;;;;;7.90;5.23;;;1.20;99.70;;;;;;5021747;28;20449;-68
2021/01/07 03:39:27;;;;;;;10.60;6.43;;;1.20;99.70;;;;;;5029901;28;20484;-67
2021/01/07 03:41:53;;;;;;;9.10;5.80;;;1.40;99.70;;;;;;5029967;28;20440;-67
2021/01/07 03:44:20;;;;;;;9.70;5.87;;;1.30;99.70;;;;;;5029779;28;20911;-69
2021/01/07 03:46:47;;;;;;;9.77;6.03;;;1.30;99.70;;;;;;5029648;28;20441;-69
2021/01/07 03:49:13;;;;;;;8.90;6.00;;;1.30;99.70;;;;;;5030065;28;20802;-68
2021/01/07 03:51:39;;;;;;;11.43;5.87;;;1.20;99.70;;;;;;5029893;28;20821;-67
2021/01/07 03:54:05;;;;;;;10.67;6.50;;;1.10;99.70;;;;;;5029603;28;20472;-67
2021/01/07 03:56:31;;;;;;;10.23;6.30;;;1.00;99.70;;;;;;5029877;28;20444;-67
2021/01/07 03:58:57;;;;;;;11.47;6.00;;;1.00;99.70;;;;;;5029550;28;20480;-67
2021/01/07 04:01:24;;;;;;;11.10;6.07;;;1.00;99.70;;;;;;5029916;28;20448;-68
2021/01/07 04:03:51;;;;;;;11.03;6.07;;;1.10;99.70;;;;;;5029749;28;20503;-67
2021/01/07 04:06:17;;;;;;;11.67;6.10;;;1.00;99.70;;;;;;5029293;28;20444;-68
2021/01/07 04:08:43;;;;;;;11.87;6.53;;;1.10;99.70;;;;;;5029321;28;20437;-68
2021/01/07 04:11:09;;;;;;;12.60;6.27;;;1.20;99.70;;;;;;5029835;28;20551;-67
2021/01/07 04:13:35;;;;;;;11.87;6.57;;;1.30;99.70;;;;;;5029830;28;20502;-67
2021/01/07 04:16:02;;;;;;;11.97;6.47;;;1.30;99.70;;;;;;5029612;28;20544;-67
2021/01/07 04:18:28;;;;;;;10.60;5.97;;;1.30;99.70;;;;;;5029441;28;21020;-67
2021/01/07 04:20:55;;;;;;;12.00;6.20;;;1.40;99.70;;;;;;5029548;28;20455;-67
2021/01/07 04:23:21;;;;;;;11.33;6.37;;;1.40;99.70;;;;;;5029635;28;20451;-68
2021/01/07 04:25:47;;;;;;;11.73;6.00;;;1.20;99.70;;;;;;5029818;28;20824;-67
2021/01/07 04:28:14;;;;;;;12.80;6.73;;;1.30;99.70;;;;;;5032624;28;20455;-68
2021/01/07 04:30:41;;;;;;;11.90;6.80;;;1.20;99.70;;;;;;5032935;28;20440;-67
2021/01/07 04:33:07;;;;;;;13.00;6.90;;;1.20;99.70;;;;;;5033178;28;20579;-68
2021/01/07 04:35:33;;;;;;;14.70;7.13;;;1.10;99.70;;;;;;5032750;28;20491;-68
2021/01/07 04:38:00;;;;;;;15.97;7.30;;;1.30;99.70;;;;;;5032578;28;20445;-67
2021/01/07 04:40:26;;;;;;;13.47;6.97;;;1.20;99.70;;;;;;5032877;28;20437;-67
2021/01/07 04:42:52;;;;;;;12.27;6.63;;;1.10;99.70;;;;;;5032797;28;20447;-68
2021/01/07 04:45:18;;;;;;;12.97;7.10;;;1.10;99.70;;;;;;5032626;28;20833;-67
2021/01/07 04:47:47;;;;;;;15.17;7.17;;;1.10;99.70;;;;;;5032568;28;20432;-67
2021/01/07 04:50:14;;;;;;;11.10;6.53;;;1.10;99.70;;;;;;5033926;28;20449;-68
2021/01/07 04:52:40;;;;;;;11.43;6.27;;;1.10;99.70;;;;;;5032688;28;20499;-69
2021/01/07 04:55:09;;;;;;;11.80;7.07;;;1.10;99.70;;;;;;5032475;28;20568;-68
2021/01/07 04:57:36;;;;;;;11.83;6.27;;;1.10;99.70;;;;;;5032188;28;20498;-68
2021/01/07 05:00:04;;;;;;;13.50;6.57;;;1.10;99.70;;;;;;5032419;28;20860;-70
2021/01/07 05:02:31;;;;;;;13.00;7.10;;;1.00;99.70;;;;;;5032506;28;20447;-68
2021/01/07 05:04:58;;;;;;;15.60;7.20;;;1.00;99.70;;;;;;5031747;28;20467;-68
2021/01/07 05:07:24;;;;;;;14.93;7.43;;;1.10;99.70;;;;;;5032120;28;20456;-68
2021/01/07 05:10:00;;;;;;;13.07;7.13;;;1.10;99.70;;;;;;5032175;28;21062;-67
2021/01/07 05:12:27;;;;;;;12.87;7.33;;;1.00;99.70;;;;;;5032303;28;20491;-69
2021/01/07 05:14:53;;;;;;;14.53;7.10;;;1.10;99.70;;;;;;5032150;28;20479;-67
2021/01/07 05:17:19;;;;;;;16.17;8.07;;;1.10;99.70;;;;;;5031950;28;20441;-68
2021/01/07 05:19:46;;;;;;;14.53;7.33;;;1.10;99.70;;;;;;5031982;28;20472;-68
2021/01/07 05:22:12;;;;;;;15.67;7.67;;;1.10;99.70;;;;;;5032205;28;20827;-68
2021/01/07 05:24:38;;;;;;;13.73;7.90;;;1.00;99.70;;;;;;5031969;28;20476;-67
2021/01/07 05:27:06;;;;;;;12.80;7.10;;;1.00;99.70;;;;;;5031578;28;20829;-67
2021/01/07 05:29:33;;;;;;;17.50;8.40;;;1.10;99.70;;;;;;5031959;28;20444;-67
2021/01/07 05:32:00;;;;;;;18.70;7.93;;;1.10;99.70;;;;;;5031996;28;20539;-68
2021/01/07 05:34:26;;;;;;;11.00;6.73;;;1.10;99.70;;;;;;5031951;28;20460;-67
2021/01/07 05:36:57;;;;;;;14.57;6.93;;;1.10;99.70;;;;;;5030899;28;20441;-69
2021/01/07 05:39:23;;;;;;;15.27;7.77;;;1.00;99.70;;;;;;5031828;28;20575;-68
2021/01/07 05:41:53;;;;;;;16.17;7.70;;;1.10;99.70;;;;;;5031571;28;20498;-68
2021/01/07 05:44:22;;;;;;;14.00;7.37;;;1.10;99.70;;;;;;5031584;28;20946;-68
2021/01/07 05:46:49;;;;;;;15.60;7.73;;;1.10;99.70;;;;;;5031200;28;20515;-68
2021/01/07 05:49:19;;;;;;;17.43;8.67;;;1.10;99.70;;;;;;5031763;28;20472;-67
2021/01/07 05:51:47;;;;;;;19.57;9.17;;;1.10;99.70;;;;;;5031519;28;20957;-68
2021/01/07 05:54:14;;;;;;;19.20;9.90;;;1.00;99.70;;;;;;5031350;28;20480;-67
2021/01/07 05:56:40;;;;;;;18.93;8.57;;;1.00;99.70;;;;;;5031292;28;20879;-68
2021/01/07 05:59:08;;;;;;;18.03;8.53;;;1.00;99.70;;;;;;5031269;28;20472;-68
2021/01/07 06:01:36;;;;;;;15.97;8.30;;;1.00;99.70;;;;;;5031355;28;20445;-68
2021/01/07 06:04:07;;;;;;;16.77;8.33;;;1.10;99.70;;;;;;5030621;28;20527;-73
2021/01/07 06:06:34;;;;;;;19.60;8.80;;;1.00;99.70;;;;;;5031293;28;20965;-67
2021/01/07 06:09:03;;;;;;;17.17;8.63;;;1.00;99.70;;;;;;5030780;28;20444;-68
2021/01/07 06:11:31;;;;;;;17.50;8.13;;;1.00;99.70;;;;;;5030966;28;21051;-68
2021/01/07 06:13:57;;;;;;;18.60;8.53;;;1.00;99.70;;;;;;5031101;28;20445;-69
2021/01/07 06:16:25;;;;;;;14.90;8.00;;;1.00;99.70;;;;;;5030924;28;20454;-68
2021/01/07 06:18:53;;;;;;;16.07;8.30;;;1.20;99.70;;;;;;5030558;28;20483;-68
2021/01/07 06:21:24;;;;;;;19.93;8.97;;;1.20;99.70;;;;;;5030771;28;20930;-68
2021/01/07 06:23:50;;;;;;;17.97;8.70;;;1.10;99.70;;;;;;5030892;28;20453;-68
2021/01/07 06:26:21;;;;;;;20.07;9.40;;;1.00;99.70;;;;;;5030731;28;20451;-67
2021/01/07 06:28:51;;;;;;;17.00;8.03;;;1.10;99.70;;;;;;5030484;28;20463;-68
2021/01/07 06:31:17;;;;;;;19.23;9.20;;;1.00;99.70;;;;;;5030650;28;20452;-68
2021/01/07 06:33:43;;;;;;;17.80;8.70;;;1.00;99.70;;;;;;5030819;28;20447;-69
2021/01/07 06:36:11;;;;;;;19.90;9.30;;;1.00;99.70;;;;;;5030666;28;20448;-68
2021/01/07 06:38:49;;;;;;;15.30;7.70;;;1.10;99.70;;;;;;5030275;28;20481;-67
2021/01/07 06:41:17;;;;;;;20.27;9.30;;;1.10;99.70;;;;;;5030493;28;20479;-67
2021/01/07 06:43:45;;;;;;;19.10;8.43;;;1.20;99.70;;;;;;5030530;28;20441;-68
2021/01/07 06:46:11;;;;;;;22.77;8.37;;;1.20;99.70;;;;;;5030351;28;20444;-68
2021/01/07 06:48:41;;;;;;;21.97;9.10;;;1.10;99.70;;;;;;5029359;28;20448;-67
2021/01/07 06:51:08;;;;;;;20.23;9.60;;;1.00;99.70;;;;;;5030407;28;20452;-69
2021/01/07 06:53:38;;;;;;;19.43;9.30;;;1.00;99.70;;;;;;5030404;28;20445;-68
2021/01/07 06:56:18;;;;;;;21.10;10.33;;;1.10;99.70;;;;;;5030127;28;20472;-68
2021/01/07 06:58:46;;;;;;;19.70;9.20;;;1.10;99.70;;;;;;5030049;28;20476;-67
2021/01/07 07:01:18;;;;;;;21.17;9.20;;;1.20;99.70;;;;;;5030321;28;20449;-67
2021/01/07 07:03:49;;;;;;;20.27;10.20;;;1.20;99.70;;;;;;5030168;28;20441;-69
2021/01/07 07:06:17;;;;;;;20.73;9.73;;;1.20;99.70;;;;;;5029839;28;20960;-69
2021/01/07 07:08:47;;;;;;;21.00;10.07;;;1.20;99.70;;;;;;5029913;28;20545;-67
2021/01/07 07:11:35;;;;;;;19.67;9.30;;;1.20;99.70;;;;;;5030323;28;20448;-68
2021/01/07 07:14:06;;;;;;;23.13;10.27;;;1.20;99.70;;;;;;5030408;28;20766;-67
2021/01/07 07:16:34;;;;;;;22.87;9.87;;;1.10;99.70;;;;;;5030168;28;20449;-68
2021/01/07 07:19:01;;;;;;;22.67;9.80;;;1.20;99.70;;;;;;5029814;28;20484;-67
2021/01/07 07:21:30;;;;;;;21.97;9.60;;;1.10;99.70;;;;;;5030123;28;20937;-68
2021/01/07 07:24:07;;;;;;;21.47;10.13;;;1.20;99.70;;;;;;5030075;28;20868;-68
2021/01/07 07:26:35;;;;;;;24.17;9.90;;;1.30;99.70;;;;;;5030367;28;20475;-67
2021/01/07 07:29:03;;;;;;;22.80;9.70;;;1.20;99.70;;;;;;5029856;28;20441;-68
2021/01/07 07:31:37;;;;;;;22.93;9.67;;;1.20;99.70;;;;;;5030162;28;20455;-69
2021/01/07 07:34:04;;;;;;;22.87;10.20;;;1.20;99.70;;;;;;5030010;28;20470;-68
2021/01/07 07:36:32;;;;;;;24.77;10.67;;;1.20;99.70;;;;;;5030122;28;20475;-69
2021/01/07 07:38:59;;;;;;;22.03;10.00;;;1.10;99.70;;;;;;5029703;28;20578;-68
2021/01/07 07:41:28;;;;;;;23.40;11.27;;;1.10;99.70;;;;;;5029980;28;20448;-67
2021/01/07 07:43:55;;;;;;;24.30;10.77;;;1.20;99.70;;;;;;5029813;28;20946;-67
2021/01/07 07:46:24;;;;;;;23.07;9.70;;;1.10;99.70;;;;;;5030020;28;20839;-67
2021/01/07 07:48:57;;;;;;;24.77;10.07;;;1.10;99.70;;;;;;5029360;28;20528;-69
2021/01/07 07:51:24;;;;;;;23.00;10.60;;;1.10;99.70;;;;;;5029988;28;20479;-67
2021/01/07 07:53:50;;;;;;;22.27;10.30;;;1.10;99.70;;;;;;5029754;28;20455;-67
2021/01/07 07:56:23;;;;;;;23.83;9.70;;;1.10;99.70;;;;;;5029916;28;20444;-67
2021/01/07 07:58:57;;;;;;;23.00;10.23;;;1.20;99.70;;;;;;5029577;28;20491;-68
2021/01/07 08:01:34;;;;;;;22.40;10.10;;;1.30;99.70;;;;;;5032854;28;20960;-68
2021/01/07 08:04:01;;;;;;;22.60;10.30;;;1.30;99.70;;;;;;5033592;28;20455;-67
2021/01/07 08:06:27;;;;;;;23.63;11.80;;;1.20;99.70;;;;;;5033332;28;20542;-69
2021/01/07 08:09:01;;;;;;;24.83;11.60;;;1.20;99.70;;;;;;5033028;28;20958;-67
2021/01/07 08:11:29;;;;;;;21.53;10.60;;;1.20;99.70;;;;;;5033583;28;20444;-68
2021/01/07 08:13:56;;;;;;;22.10;10.63;;;1.20;99.70;;;;;;5033331;28;20807;-68
2021/01/07 08:16:24;;;;;;;21.73;10.10;;;1.20;99.70;;;;;;5033370;28;20444;-68
2021/01/07 08:18:50;;;;;;;21.07;10.73;;;1.40;99.70;;;;;;5032859;28;20551;-68
2021/01/07 08:21:17;;;;;;;23.60;11.20;;;1.20;99.70;;;;;;5033456;28;20440;-67
2021/01/07 08:23:43;;;;;;;24.90;11.90;;;1.20;99.70;;;;;;5033007;28;20546;-69
2021/01/07 08:26:20;;;;;;;21.60;10.47;;;1.20;99.70;;;;;;5028867;28;20491;-71
2021/01/07 08:28:47;;;;;;;25.73;10.87;;;1.30;99.70;;;;;;5030926;28;20444;-68
2021/01/07 08:31:18;;;;;;;23.20;10.20;;;1.30;99.70;;;;;;5033048;28;20456;-69
2021/01/07 08:33:45;;;;;;;25.50;10.60;;;1.40;99.70;;;;;;5032847;28;20934;-67
2021/01/07 08:36:14;;;;;;;23.23;10.07;;;1.50;99.70;;;;;;5032949;28;20440;-69
2021/01/07 08:38:41;;;;;;;22.70;9.93;;;1.50;99.70;;;;;;5032538;28;20448;-68
2021/01/07 08:41:10;;;;;;;22.07;10.13;;;1.60;99.70;;;;;;5033070;28;20522;-67
2021/01/07 08:43:36;;;;;;;22.47;10.20;;;1.60;99.70;;;;;;5032699;28;20449;-68
2021/01/07 08:46:13;;;;;;;24.47;9.40;;;1.60;99.70;;;;;;5033004;28;20505;-67
2021/01/07 08:48:39;;;;;;;23.73;11.13;;;1.90;99.70;;;;;;5032373;28;20455;-68
2021/01/07 08:51:19;;;;;;;28.90;11.67;;;2.10;99.70;;;;;;5032892;28;20444;-67
2021/01/07 08:53:49;;;;;;;29.03;10.87;;;1.80;99.70;;;;;;5032646;28;20444;-67
2021/01/07 08:56:32;;;;;;;25.47;11.40;;;1.60;99.70;;;;;;5032830;28;20437;-67
2021/01/07 08:59:25;;;;;;;28.90;10.73;;;1.70;99.70;;;;;;5032301;28;20516;-68
2021/01/07 09:01:54;;;;;;;22.07;10.67;;;1.80;99.70;;;;;;5032701;28;20441;-68
2021/01/07 09:04:30;;;;;;;26.07;11.40;;;1.90;99.70;;;;;;5031973;28;20469;-70
2021/01/07 09:06:58;;;;;;;26.63;11.53;;;2.30;99.70;;;;;;5030348;28;20459;-67
2021/01/07 09:09:25;;;;;;;25.73;11.83;;;2.10;99.70;;;;;;5030973;28;20448;-68
2021/01/07 09:12:07;;;;;;;23.90;10.60;;;2.00;99.70;;;;;;5022352;28;20468;-68
2021/01/07 09:14:46;;;;;;;27.90;11.60;;;2.10;99.70;;;;;;5012523;28;20472;-68
2021/01/07 09:17:13;;;;;;;25.67;11.90;;;1.90;99.70;;;;;;5012514;28;20822;-67
2021/01/07 09:19:39;;;;;;;25.87;13.03;;;1.80;99.70;;;;;;5014661;28;20504;-68
2021/01/07 09:22:06;;;;;;;27.33;11.10;;;2.00;99.70;;;;;;5032534;28;20448;-67
2021/01/07 09:24:34;;;;;;;22.90;10.97;;;1.90;99.70;;;;;;5032180;28;20464;-67
2021/01/07 09:27:10;;;;;;;26.63;12.47;;;1.80;99.70;;;;;;5031747;28;20456;-67
2021/01/07 09:29:37;;;;;;;33.37;12.50;;;1.80;99.70;;;;;;5028774;28;20455;-68
2021/01/07 09:32:05;;;;;;;27.57;11.60;;;1.90;99.70;;;;;;5031899;28;20456;-67
2021/01/07 09:34:33;;;;;;;31.03;12.40;;;1.80;99.70;;;;;;5031707;28;20471;-68
2021/01/07 09:37:07;;;;;;;24.30;11.60;;;1.80;99.70;;;;;;5031549;28;20445;-68
2021/01/07 09:39:34;;;;;;;24.87;11.37;;;1.80;99.70;;;;;;5023889;28;20499;-68
2021/01/07 09:42:01;;;;;;;24.40;12.00;;;1.90;99.70;;;;;;5012012;28;20449;-68
2021/01/07 09:44:27;;;;;;;28.43;12.53;;;1.80;99.70;;;;;;5012860;28;20504;-70
2021/01/07 09:46:55;;;;;;;24.27;11.60;;;1.80;99.70;;;;;;5011358;28;20473;-69
2021/01/07 09:49:22;;;;;;;25.33;11.50;;;1.80;99.70;;;;;;5011798;28;20446;-69
2021/01/07 09:51:50;;;;;;;25.87;11.57;;;1.80;99.70;;;;;;5016989;28;20441;-65
2021/01/07 09:54:17;;;;;;;24.83;11.97;;;1.80;99.70;;;;;;5018920;28;20489;-67
2021/01/07 09:56:44;;;;;;;24.40;11.03;;;2.20;99.70;;;;;;5018699;28;20496;-70
2021/01/07 09:59:10;;;;;;;25.50;11.47;;;2.20;99.70;;;;;;5011667;28;21006;-68
2021/01/07 10:01:37;;;;;;;29.90;11.83;;;2.30;99.70;;;;;;5030693;28;20437;-68
2021/01/07 10:04:04;;;;;;;36.97;13.20;;;2.30;99.70;;;;;;5026302;28;20473;-70
2021/01/07 10:06:31;;;;;;;26.10;11.23;;;2.30;99.70;;;;;;5020063;28;20963;-68
2021/01/07 10:08:58;;;;;;;28.73;12.97;;;2.20;99.70;;;;;;5025357;28;20841;-68
2021/01/07 10:11:24;;;;;;;25.47;11.97;;;2.10;99.70;;;;;;5028585;28;20445;-69
2021/01/07 10:13:50;;;;;;;29.90;13.27;;;1.90;99.70;;;;;;5013010;28;20453;-70
2021/01/07 10:16:16;;;;;;;26.23;11.67;;;1.90;99.70;;;;;;5010572;28;20453;-68
2021/01/07 10:18:43;;;;;;;24.30;11.70;;;1.90;99.70;;;;;;5012984;28;20460;-68
2021/01/07 10:21:10;;;;;;;27.13;12.13;;;2.00;99.70;;;;;;5029909;28;20452;-68
2021/01/07 10:23:40;;;;;;;24.40;11.33;;;2.00;99.70;;;;;;5012090;28;20955;-68
2021/01/07 10:26:09;;;;;;;26.57;11.53;;;2.20;99.70;;;;;;5010393;28;20469;-67
2021/01/07 10:28:37;;;;;;;32.07;12.10;;;2.10;99.70;;;;;;5025308;28;20444;-68
2021/01/07 10:31:03;;;;;;;31.33;12.90;;;2.10;99.70;;;;;;5018061;28;20460;-68
2021/01/07 10:33:31;;;;;;;28.10;11.83;;;2.40;99.70;;;;;;5017620;28;20449;-68
2021/01/07 10:35:58;;;;;;;25.03;10.93;;;2.40;99.70;;;;;;5016667;28;20527;-67
2021/01/07 10:38:27;;;;;;;27.70;10.53;;;2.50;99.70;;;;;;5017009;28;20978;-68
2021/01/07 10:40:54;;;;;;;23.83;11.87;;;2.60;99.70;;;;;;5017747;28;20536;-68
2021/01/07 10:43:22;;;;;;;23.30;9.80;;;2.50;99.70;;;;;;5017593;28;20480;-67
2021/01/07 10:45:53;;;;;;;25.67;12.13;;;2.60;99.70;;;;;;5018438;28;20465;-68
2021/01/07 10:48:22;;;;;;;25.30;11.47;;;2.50;99.70;;;;;;5019489;28;20865;-67
2021/01/07 10:50:49;;;;;;;24.80;12.20;;;2.50;99.70;;;;;;5017709;28;20440;-69
2021/01/07 10:53:55;;;;;;;24.07;11.77;;;2.40;99.70;;;;;;5028276;28;20476;-68
2021/01/07 10:56:33;;;;;;;23.70;11.20;;;2.40;99.70;;;;;;5016843;28;20437;-69
2021/01/07 10:59:17;;;;;;;22.33;11.80;;;2.30;99.70;;;;;;5023600;28;20554;-68
2021/01/07 11:01:59;;;;;;;27.50;11.80;;;2.50;99.70;;;;;;5019242;28;20441;-71
2021/01/07 11:05:02;;;;;;;26.73;12.00;;;2.40;99.70;;;;;;5016139;28;20524;-70
2021/01/07 11:07:34;;;;;;;25.93;12.37;;;2.70;99.70;;;;;;5015697;28;20494;-68
2021/01/07 11:10:06;;;;;;;25.83;11.90;;;2.80;99.70;;;;;;5016217;28;20536;-68
2021/01/07 11:12:40;;;;;;;24.70;11.30;;;2.80;99.70;;;;;;5018980;28;20469;-67
2021/01/07 11:15:12;;;;;;;27.90;11.83;;;2.80;99.70;;;;;;5021751;28;20503;-68
2021/01/07 11:17:46;;;;;;;26.50;11.50;;;2.80;99.70;;;;;;5017546;28;20449;-69
2021/01/07 11:20:13;;;;;;;25.03;11.80;;;2.90;99.70;;;;;;5011141;28;20480;-69
2021/01/07 11:22:41;;;;;;;27.60;12.50;;;2.60;99.70;;;;;;5017987;28;20444;-69
2021/01/07 11:25:08;;;;;;;23.27;11.40;;;2.60;99.70;;;;;;5019637;28;20457;-68
2021/01/07 11:27:35;;;;;;;26.50;12.07;;;2.70;99.70;;;;;;5017642;28;20768;-68
2021/01/07 11:30:05;;;;;;;26.80;11.80;;;2.70;99.70;;;;;;5018650;28;20455;-69
2021/01/07 11:32:37;;;;;;;23.50;11.43;;;2.60;99.70;;;;;;5022319;28;20448;-67
2021/01/07 11:35:07;;;;;;;25.13;11.47;;;2.70;99.70;;;;;;5029782;28;20476;-68
2021/01/07 11:37:44;;;;;;;28.60;12.77;;;3.00;99.70;;;;;;5032951;28;20448;-68
2021/01/07 11:40:16;;;;;;;26.47;12.43;;;3.00;99.70;;;;;;5033141;28;20498;-69
2021/01/07 11:43:10;;;;;;;27.30;12.20;;;3.00;99.70;;;;;;5014537;28;20449;-68
2021/01/07 11:45:38;;;;;;;22.20;10.90;;;2.70;99.70;;;;;;5016147;28;20473;-67
2021/01/07 11:48:08;;;;;;;28.73;13.10;;;2.60;99.70;;;;;;5015161;28;20441;-68
2021/01/07 11:50:37;;;;;;;26.03;12.07;;;2.90;99.70;;;;;;5025938;28;20480;-69
2021/01/07 11:53:04;;;;;;;26.60;13.00;;;2.80;99.70;;;;;;5013433;28;20450;-68
2021/01/07 11:55:31;;;;;;;25.67;12.50;;;2.70;99.70;;;;;;5017124;28;20480;-68
2021/01/07 11:57:58;;;;;;;29.70;12.70;;;2.90;99.70;;;;;;5017274;28;20484;-69
2021/01/07 12:00:25;;;;;;;28.40;12.37;;;2.80;99.70;;;;;;5018484;28;20476;-68
2021/01/07 12:02:52;;;;;;;25.27;11.90;;;2.80;99.70;;;;;;5023304;28;20528;-68
2021/01/07 12:05:20;;;;;;;26.43;12.33;;;3.10;99.70;;;;;;5022058;28;20460;-67
2021/01/07 12:07:59;;;;;;;26.30;13.30;;;3.00;99.70;;;;;;5022993;28;20449;-69
2021/01/07 12:10:29;;;;;;;25.00;12.20;;;2.90;99.70;;;;;;5021050;28;20896;-67
2021/01/07 12:13:05;;;;;;;27.97;13.50;;;3.00;99.70;;;;;;5024543;28;20549;-67
2021/01/07 12:15:34;;;;;;;29.93;13.20;;;2.90;99.70;;;;;;5031760;28;20988;-67
2021/01/07 12:18:01;;;;;;;25.97;12.53;;;3.00;99.70;;;;;;5009554;28;20456;-71
2021/01/07 12:20:28;;;;;;;28.33;12.80;;;3.20;99.70;;;;;;5018001;28;20482;-70
2021/01/07 12:22:56;;;;;;;26.33;13.13;;;3.30;99.70;;;;;;5031810;28;20810;-70
2021/01/07 12:25:23;;;;;;;28.10;13.43;;;3.20;99.70;;;;;;5009534;28;20475;-67
2021/01/07 12:27:49;;;;;;;25.77;12.63;;;3.20;99.70;;;;;;4992789;28;20484;-68
2021/01/07 12:30:18;;;;;;;28.93;13.17;;;3.00;99.70;;;;;;4992760;28;20438;-69
2021/01/07 12:32:54;;;;;;;24.87;11.80;;;2.90;99.70;;;;;;5007925;28;20864;-69
2021/01/07 12:35:24;;;;;;;25.63;11.33;;;3.20;99.70;;;;;;5012165;28;20469;-70
2021/01/07 12:38:01;;;;;;;26.90;13.07;;;3.20;99.70;;;;;;4996534;28;20447;-69
2021/01/07 12:40:33;;;;;;;27.80;12.67;;;3.10;99.70;;;;;;5008843;28;20476;-70
2021/01/07 12:43:06;;;;;;;25.97;11.10;;;3.10;99.70;;;;;;5025988;28;20558;-69
2021/01/07 12:45:35;;;;;;;23.30;11.93;;;3.30;99.70;;;;;;5022308;28;21107;-68
2021/01/07 12:48:03;;;;;;;29.47;13.10;;;3.00;99.70;;;;;;5011624;28;20901;-69
2021/01/07 12:50:29;;;;;;;27.77;12.70;;;3.00;99.70;;;;;;5021336;28;20450;-68